KILE/ILE METAR and TAF weather

Enter ICAO airport designator
Station Type Date Time Source
KILE METAR 2020/07/14 22:56 UTC NOAA

KILE 142256Z AUTO 17015G19KT 10SM 39/18 A2985 RMK AO2 SLP092 T03940178 $


Station Type Date Time Source
KILE Decoded METAR 2020/07/14 22:56 UTC NOAA

Killeen, Skylark Field Airport, TX, United States (KILE) 31-05N 097-41W
Jul 14, 2020 - 06:56 PM EDT / 2020.07.14 2256 UTC
Wind: from the S (170 degrees) at 17 MPH (15 KT) gusting to 22 MPH (19 KT):0
Visibility: 10 mile(s):0
Temperature: 102.9 F (39.4 C)
Heat index: 106.2 F (41.2 C):1
Dew Point: 64.0 F (17.8 C)
Relative Humidity: 28%
Pressure (altimeter): 29.85 in. Hg (1010 hPa)
ob: KILE 142256Z AUTO 17015G19KT 10SM 39/18 A2985 RMK AO2 SLP092 T03940178
cycle: 23

Station Type Date Time Source
KILE TAF UTC NOAA

Error!

Example: see airport list